Time;durP1;ratioP1;P1;durP2;ratioP2;P2;SDS_P1;SDS_P2;PMS_P1;PMS_P2;Temp;Humidity;BMP_temperature;BMP_pressure;BME280_temperature;BME280_humidity;BME280_pressure;Samples;Min_cycle;Max_cycle;Signal;HPM_P1;HPM_P2
2022/01/04 00:01:59;;;;;;;12.02;2.92;;;;;;;7.14;100.00;100274.78;5276779;28;20064;-74
2022/01/04 00:04:29;;;;;;;12.13;2.30;;;;;;;7.15;100.00;100269.28;5268701;28;20468;-74
2022/01/04 00:06:59;;;;;;;14.80;3.10;;;;;;;7.13;100.00;100262.41;5277172;28;20091;-74
2022/01/04 00:09:30;;;;;;;13.40;3.30;;;;;;;7.14;100.00;100261.44;5273063;28;20394;-74
2022/01/04 00:14:49;;;;;;;16.85;2.38;;;;;;;7.15;100.00;100249.75;5268425;28;20016;-75
2022/01/04 00:17:20;;;;;;;17.08;2.65;;;;;;;7.15;100.00;100249.75;5271362;28;20034;-74
2022/01/04 00:19:50;;;;;;;13.15;3.35;;;;;;;7.18;100.00;100246.78;5276197;28;20028;-74
2022/01/04 00:22:21;;;;;;;12.48;2.92;;;;;;;7.17;100.00;100237.09;5278859;28;20020;-74
2022/01/04 00:24:51;;;;;;;10.13;2.35;;;;;;;7.14;100.00;100226.75;5276647;28;20426;-75
2022/01/04 00:27:22;;;;;;;14.18;2.85;;;;;;;7.13;100.00;100217.06;5270442;27;20023;-75
2022/01/04 00:29:52;;;;;;;8.23;2.30;;;;;;;7.11;100.00;100214.56;5268425;28;20047;-74
2022/01/04 00:32:23;;;;;;;11.55;2.75;;;;;;;7.12;100.00;100200.22;5277504;28;20268;-74
2022/01/04 00:34:54;;;;;;;13.10;2.33;;;;;;;7.10;100.00;100202.22;5267854;28;20035;-74
2022/01/04 00:37:24;;;;;;;7.97;2.10;;;;;;;7.09;100.00;100197.06;5273290;28;20115;-73
2022/01/04 00:39:55;;;;;;;8.10;2.35;;;;;;;7.07;100.00;100191.03;5278827;28;20020;-73
2022/01/04 00:42:25;;;;;;;9.77;2.17;;;;;;;7.01;100.00;100185.34;5273731;27;20028;-73
2022/01/04 00:44:56;;;;;;;12.52;2.97;;;;;;;7.00;100.00;100183.66;5272179;28;20034;-73
2022/01/04 00:47:40;;;;;;;10.38;2.35;;;;;;;7.03;100.00;100181.66;5272439;28;20024;-73
2022/01/04 00:50:10;;;;;;;8.57;1.65;;;;;;;6.98;100.00;100184.84;5279063;28;20023;-73
2022/01/04 00:52:41;;;;;;;13.18;2.38;;;;;;;6.97;100.00;100183.97;5272034;28;20034;-74
2022/01/04 00:55:11;;;;;;;8.15;2.10;;;;;;;6.99;100.00;100173.19;5273192;28;20027;-74
2022/01/04 00:57:42;;;;;;;10.95;3.22;;;;;;;6.95;100.00;100177.97;5284352;28;20024;-73
2022/01/04 01:00:15;;;;;;;12.07;2.17;;;;;;;6.96;100.00;100178.81;5273363;28;20035;-73
2022/01/04 01:02:46;;;;;;;8.52;1.80;;;;;;;6.95;100.00;100183.31;5272039;28;20068;-73
2022/01/04 01:05:18;;;;;;;7.18;1.92;;;;;;;6.93;100.00;100176.47;5271510;28;20111;-73
2022/01/04 01:07:49;;;;;;;7.22;2.30;;;;;;;6.90;100.00;100169.63;5265308;28;20099;-73
2022/01/04 01:13:10;;;;;;;8.13;2.22;;;;;;;6.85;100.00;100161.25;5264461;28;20024;-73
2022/01/04 01:15:44;;;;;;;10.52;2.58;;;;;;;6.83;100.00;100160.59;5266057;28;20051;-73
2022/01/04 01:18:17;;;;;;;15.20;3.20;;;;;;;6.84;100.00;100169.44;5268186;28;20027;-73
2022/01/04 01:20:49;;;;;;;9.90;2.08;;;;;;;6.82;100.00;100161.56;5275593;28;20121;-74
2022/01/04 01:23:20;;;;;;;7.85;2.00;;;;;;;6.83;100.00;100167.72;5278566;28;20035;-74
2022/01/04 01:25:51;;;;;;;12.10;2.70;;;;;;;6.85;100.00;100163.09;5274118;28;20031;-73
2022/01/04 01:28:22;;;;;;;12.63;2.40;;;;;;;6.85;100.00;100163.09;5268588;28;20345;-74
2022/01/04 01:30:52;;;;;;;10.63;2.80;;;;;;;6.83;100.00;100149.06;5266366;28;20032;-74
2022/01/04 01:33:24;;;;;;;9.63;2.90;;;;;;;6.84;100.00;100151.59;5267744;28;20024;-73
2022/01/04 01:35:56;;;;;;;10.73;3.20;;;;;;;6.86;100.00;100149.59;5264734;28;20034;-73
2022/01/04 01:38:26;;;;;;;15.85;2.90;;;;;;;6.89;100.00;100143.13;5262748;28;20095;-73
2022/01/04 01:40:57;;;;;;;15.13;3.45;;;;;;;6.91;100.00;100139.28;5276709;28;20038;-73
2022/01/04 01:43:29;;;;;;;17.77;4.70;;;;;;;6.91;100.00;100141.94;5275369;28;20023;-73
2022/01/04 01:45:59;;;;;;;13.13;3.60;;;;;;;6.92;100.00;100129.47;5271751;28;20023;-73
2022/01/04 01:48:30;;;;;;;19.02;3.47;;;;;;;6.91;100.00;100130.47;5276877;28;20027;-73
2022/01/04 01:51:01;;;;;;;15.05;4.13;;;;;;;6.96;100.00;100130.81;5263630;28;20484;-73
2022/01/04 01:53:31;;;;;;;15.70;4.18;;;;;;;6.92;100.00;100122.28;5277283;28;20093;-73
2022/01/04 01:56:02;;;;;;;20.60;4.72;;;;;;;6.93;100.00;100117.81;5275380;28;20102;-73
2022/01/04 01:58:33;;;;;;;23.05;6.55;;;;;;;6.91;100.00;100111.78;5270837;28;20024;-73
2022/01/04 02:01:03;;;;;;;21.30;5.75;;;;;;;6.90;100.00;100107.47;5275140;28;20492;-73
2022/01/04 02:03:33;;;;;;;18.58;5.05;;;;;;;6.88;100.00;100096.13;5279868;28;20035;-72
2022/01/04 02:06:04;;;;;;;22.80;6.28;;;;;;;6.87;100.00;100097.09;5279545;28;20029;-73
2022/01/04 02:08:35;;;;;;;26.45;5.75;;;;;;;6.90;100.00;100091.47;5276023;28;20468;-73
2022/01/04 02:11:07;;;;;;;15.35;5.13;;;;;;;6.90;100.00;100086.13;5277103;28;20040;-73
2022/01/04 02:13:38;;;;;;;19.85;6.32;;;;;;;6.93;100.00;100085.81;5284471;28;20023;-73
2022/01/04 02:16:11;;;;;;;18.95;5.30;;;;;;;6.97;100.00;100093.31;5279830;28;20405;-73
2022/01/04 02:18:41;;;;;;;15.98;5.22;;;;;;;6.97;100.00;100092.47;5275486;28;20058;-73
2022/01/04 02:21:12;;;;;;;18.02;6.57;;;;;;;6.95;100.00;100089.16;5283762;28;20059;-73
2022/01/04 02:23:43;;;;;;;24.83;6.10;;;;;;;6.96;100.00;100083.63;5284175;28;20068;-73
2022/01/04 02:26:13;;;;;;;22.08;6.43;;;;;;;6.96;100.00;100086.31;5283515;28;20036;-74
2022/01/04 02:28:46;;;;;;;15.68;5.82;;;;;;;6.96;100.00;100086.31;5284046;28;20020;-74
2022/01/04 02:31:17;;;;;;;19.10;5.68;;;;;;;6.97;100.00;100079.97;5284241;28;20051;-73
2022/01/04 02:33:47;;;;;;;18.95;5.28;;;;;;;6.97;100.00;100063.97;5284293;28;20479;-73
2022/01/04 02:36:18;;;;;;;23.83;5.38;;;;;;;6.96;100.00;100064.97;5280022;28;20028;-73
2022/01/04 02:38:51;;;;;;;15.55;5.30;;;;;;;6.96;100.00;100046.31;5267442;28;20388;-73
2022/01/04 02:41:22;;;;;;;12.25;5.47;;;;;;;6.98;100.00;100051.50;5275423;28;20357;-73
2022/01/04 02:43:52;;;;;;;19.67;5.53;;;;;;;6.97;100.00;100034.63;5272501;27;20020;-73
2022/01/04 02:46:23;;;;;;;19.65;5.15;;;;;;;6.93;100.00;100025.31;5267850;28;20077;-73
2022/01/04 02:48:54;;;;;;;19.15;5.20;;;;;;;6.91;100.00;100021.97;5270782;28;20072;-73
2022/01/04 02:51:24;;;;;;;15.05;4.60;;;;;;;6.93;100.00;100021.81;5277565;28;20075;-73
2022/01/04 02:53:55;;;;;;;21.05;5.28;;;;;;;6.90;100.00;100008.81;5270997;28;20450;-75
2022/01/04 02:56:27;;;;;;;17.10;4.95;;;;;;;6.86;100.00;99996.78;5275935;28;20020;-76
2022/01/04 02:59:04;;;;;;;11.77;4.47;;;;;;;6.84;100.00;99998.78;5272360;28;20080;-75
2022/01/04 03:01:38;;;;;;;12.38;4.45;;;;;;;6.85;100.00;99995.13;5264944;28;20450;-75
2022/01/04 03:04:12;;;;;;;12.02;4.65;;;;;;;6.86;100.00;99994.13;5275507;28;20123;-76
2022/01/04 03:06:45;;;;;;;16.60;4.70;;;;;;;6.86;100.00;99986.97;5269483;27;20032;-76
2022/01/04 03:09:15;;;;;;;16.05;4.68;;;;;;;6.86;100.00;99978.97;5267519;28;20027;-76
2022/01/04 03:11:46;;;;;;;14.38;4.07;;;;;;;6.85;100.00;99976.47;5266155;28;20489;-76
2022/01/04 03:14:16;;;;;;;11.23;4.05;;;;;;;6.84;100.00;99964.97;5265490;28;20024;-76
2022/01/04 03:16:47;;;;;;;11.40;4.38;;;;;;;6.81;100.00;99967.13;5270092;28;20028;-76
2022/01/04 03:19:18;;;;;;;10.18;4.22;;;;;;;6.80;100.00;99960.13;5270529;28;20024;-76
2022/01/04 03:21:48;;;;;;;8.93;4.55;;;;;;;6.81;100.00;99967.13;5271201;28;20020;-76
2022/01/04 03:24:18;;;;;;;10.75;3.85;;;;;;;6.79;100.00;99961.97;5273017;27;20032;-76
2022/01/04 03:26:49;;;;;;;9.13;4.32;;;;;;;6.82;100.00;99955.44;5271594;28;20553;-76
2022/01/04 03:29:20;;;;;;;10.13;4.05;;;;;;;6.78;100.00;99948.78;5271648;28;20141;-76
2022/01/04 03:31:52;;;;;;;9.80;4.93;;;;;;;6.77;100.00;99944.44;5275030;28;20024;-77
2022/01/04 03:34:23;;;;;;;11.10;4.65;;;;;;;6.79;100.00;99943.31;5270887;28;20398;-76
2022/01/04 03:36:54;;;;;;;9.40;4.05;;;;;;;6.81;100.00;99932.47;5272801;28;20043;-76
2022/01/04 03:39:24;;;;;;;11.82;4.28;;;;;;;6.79;100.00;99921.13;5268091;28;20024;-76
2022/01/04 03:41:55;;;;;;;11.20;4.50;;;;;;;6.76;100.00;99914.28;5274226;27;20126;-77
2022/01/04 03:44:26;;;;;;;9.43;3.55;;;;;;;6.75;100.00;99902.78;5278015;28;20084;-76
2022/01/04 03:46:57;;;;;;;10.63;4.18;;;;;;;6.75;100.00;99893.97;5278208;27;20042;-76
2022/01/04 03:49:27;;;;;;;9.93;3.95;;;;;;;6.74;100.00;99894.97;5274031;28;20392;-77
2022/01/04 03:51:58;;;;;;;9.02;3.95;;;;;;;6.74;100.00;99893.13;5272143;28;20026;-76
2022/01/04 03:54:30;;;;;;;9.50;3.60;;;;;;;6.75;100.00;99899.31;5270991;28;20499;-77
2022/01/04 03:57:00;;;;;;;7.90;4.07;;;;;;;6.75;100.00;99883.31;5271366;28;20048;-77
2022/01/04 03:59:31;;;;;;;7.38;3.97;;;;;;;6.74;100.00;99876.31;5276352;28;20107;-77
2022/01/04 04:02:01;;;;;;;7.25;3.38;;;;;;;6.74;100.00;99874.47;5269800;28;20023;-77
2022/01/04 04:04:32;;;;;;;7.55;3.83;;;;;;;6.72;100.00;99872.97;5272496;28;20034;-77
2022/01/04 04:07:02;;;;;;;7.63;4.25;;;;;;;6.71;100.00;99864.13;5272345;28;20023;-77
2022/01/04 04:09:34;;;;;;;10.95;3.95;;;;;;;6.72;100.00;99871.13;5274897;28;20392;-75
2022/01/04 04:12:05;;;;;;;7.28;4.03;;;;;;;6.73;100.00;99869.31;5274627;28;20362;-75
2022/01/04 04:14:36;;;;;;;8.95;3.67;;;;;;;6.70;100.00;99859.81;5274530;28;20513;-74
2022/01/04 04:17:06;;;;;;;6.82;3.50;;;;;;;6.69;100.00;99850.16;5278612;28;20050;-74
2022/01/04 04:19:37;;;;;;;6.00;3.55;;;;;;;6.69;100.00;99858.16;5269472;28;20045;-74
2022/01/04 04:22:07;;;;;;;10.57;2.83;;;;;;;6.68;100.00;99855.66;5280382;28;20036;-74
2022/01/04 04:24:38;;;;;;;11.68;4.22;;;;;;;6.69;100.00;99852.81;5267371;28;20047;-74
2022/01/04 04:27:08;;;;;;;11.38;3.65;;;;;;;6.67;100.00;99849.47;5280050;28;20102;-73
2022/01/04 04:29:39;;;;;;;9.13;3.50;;;;;;;6.67;100.00;99856.63;5276303;28;20025;-74
2022/01/04 04:32:10;;;;;;;8.32;3.80;;;;;;;6.65;100.00;99851.47;5281352;28;20023;-73
2022/01/04 04:34:41;;;;;;;8.15;3.55;;;;;;;6.65;100.00;99854.13;5278850;28;20027;-74
2022/01/04 04:37:11;;;;;;;7.88;3.60;;;;;;;6.61;100.00;99847.47;5270573;28;20024;-73
2022/01/04 04:39:42;;;;;;;9.38;4.00;;;;;;;6.60;100.00;99850.31;5267041;28;20024;-74
2022/01/04 04:42:12;;;;;;;11.10;3.85;;;;;;;6.62;100.00;99846.47;5270948;28;20019;-74
2022/01/04 04:44:45;;;;;;;10.68;3.88;;;;;;;6.62;100.00;99842.97;5270528;28;20410;-74
2022/01/04 04:47:15;;;;;;;8.18;3.97;;;;;;;6.65;100.00;99843.47;5274185;28;20024;-73
2022/01/04 04:49:46;;;;;;;12.70;4.40;;;;;;;6.67;100.00;99838.81;5274740;28;20023;-74
2022/01/04 04:52:16;;;;;;;13.25;4.13;;;;;;;6.68;100.00;99839.66;5267248;28;20119;-74
2022/01/04 04:54:47;;;;;;;9.48;3.85;;;;;;;6.64;100.00;99835.66;5276959;28;20023;-74
2022/01/04 04:57:18;;;;;;;9.88;4.60;;;;;;;6.65;100.00;99832.81;5272628;28;20023;-73
2022/01/04 04:59:48;;;;;;;12.38;4.63;;;;;;;6.63;100.00;99832.16;5277291;28;20020;-73
2022/01/04 05:02:19;;;;;;;12.10;4.45;;;;;;;6.66;100.00;99829.16;5265074;28;20058;-72
2022/01/04 05:04:49;;;;;;;10.02;4.07;;;;;;;6.68;100.00;99823.69;5277644;28;20039;-73
2022/01/04 05:07:20;;;;;;;14.40;4.80;;;;;;;6.68;100.00;99818.34;5275507;28;20024;-73
2022/01/04 05:09:51;;;;;;;14.52;4.63;;;;;;;6.68;100.00;99813.00;5268084;28;20507;-73
2022/01/04 05:12:21;;;;;;;13.70;5.45;;;;;;;6.67;100.00;99812.16;5267051;28;20198;-73
2022/01/04 05:14:52;;;;;;;15.60;5.55;;;;;;;6.67;100.00;99819.31;5274288;28;20488;-73
2022/01/04 05:17:22;;;;;;;18.55;5.72;;;;;;;6.65;100.00;99830.16;5271611;28;20047;-73
2022/01/04 05:19:53;;;;;;;12.98;5.90;;;;;;;6.65;100.00;99816.00;5273934;28;20431;-73
2022/01/04 05:22:24;;;;;;;14.32;7.10;;;;;;;6.67;100.00;99804.16;5267771;28;20103;-73
2022/01/04 05:24:54;;;;;;;15.75;5.88;;;;;;;6.68;100.00;99805.84;5267125;28;20827;-72
2022/01/04 05:27:25;;;;;;;17.55;6.63;;;;;;;6.66;100.00;99793.66;5276126;28;20469;-72
2022/01/04 05:29:56;;;;;;;16.48;6.50;;;;;;;6.65;100.00;99784.00;5267687;28;20024;-73
2022/01/04 05:32:26;;;;;;;18.48;7.18;;;;;;;6.62;100.00;99785.16;5270739;27;20099;-73
2022/01/04 05:34:57;;;;;;;16.17;6.50;;;;;;;6.63;100.00;99788.69;5268531;28;20073;-73
2022/01/04 05:37:27;;;;;;;17.83;7.53;;;;;;;6.64;100.00;99782.34;5269273;28;20496;-73
2022/01/04 05:39:58;;;;;;;17.83;7.38;;;;;;;6.66;100.00;99793.66;5267348;28;20038;-73
2022/01/04 05:42:28;;;;;;;20.20;6.88;;;;;;;6.66;100.00;99789.16;5269204;28;20045;-73
2022/01/04 05:44:59;;;;;;;19.00;6.68;;;;;;;6.67;100.00;99787.34;5262617;28;20408;-73
2022/01/04 05:47:29;;;;;;;20.85;6.47;;;;;;;6.66;100.00;99777.69;5283795;28;20498;-73
2022/01/04 05:50:00;;;;;;;16.73;6.38;;;;;;;6.64;100.00;99779.69;5282451;28;20118;-73
2022/01/04 05:52:30;;;;;;;21.73;6.95;;;;;;;6.64;100.00;99777.03;5283885;27;20043;-73
2022/01/04 05:55:01;;;;;;;16.70;6.53;;;;;;;6.62;100.00;99776.34;5266734;28;20034;-73
2022/01/04 05:57:32;;;;;;;16.73;6.95;;;;;;;6.65;100.00;99778.69;5272269;28;20032;-73
2022/01/04 06:00:04;;;;;;;22.75;10.07;;;;;;;6.66;100.00;99781.19;5282767;28;20479;-73
2022/01/04 06:02:35;;;;;;;15.73;6.88;;;;;;;6.66;100.00;99780.34;5284052;28;20058;-73
2022/01/04 06:05:06;;;;;;;17.27;6.65;;;;;;;6.66;100.00;99778.50;5270693;28;20058;-74
2022/01/04 06:07:37;;;;;;;21.58;8.15;;;;;;;6.66;100.00;99769.69;5279659;28;20027;-74
2022/01/04 06:10:09;;;;;;;23.73;12.10;;;;;;;6.69;100.00;99769.38;5270568;28;20031;-75
2022/01/04 06:15:12;;;;;;;25.25;8.63;;;;;;;6.68;100.00;99770.38;5263189;28;20031;-75
2022/01/04 06:17:47;;;;;;;23.25;8.48;;;;;;;6.69;100.00;99764.03;5270493;28;20039;-75
2022/01/04 06:20:22;;;;;;;23.70;7.18;;;;;;;6.71;100.00;99770.84;5264190;28;20036;-74
2022/01/04 06:22:53;;;;;;;30.42;14.13;;;;;;;6.70;100.00;99760.34;5273031;28;20030;-75
2022/01/04 06:25:23;;;;;;;29.48;8.82;;;;;;;6.68;100.00;99763.19;5271563;28;20020;-75
2022/01/04 06:27:56;;;;;;;32.00;10.10;;;;;;;6.66;100.00;99767.84;5263221;28;20020;-75
2022/01/04 06:30:27;;;;;;;26.45;7.57;;;;;;;6.71;100.00;99770.84;5268759;28;20314;-75
2022/01/04 06:32:57;;;;;;;28.08;8.70;;;;;;;6.69;100.00;99770.19;5284359;28;20031;-75
2022/01/04 06:35:29;;;;;;;30.35;9.27;;;;;;;6.66;100.00;99767.84;5276057;28;20538;-75
2022/01/04 06:38:00;;;;;;;35.88;10.38;;;;;;;6.66;100.00;99748.38;5264508;28;20036;-76
2022/01/04 06:40:31;;;;;;;34.78;9.95;;;;;;;6.64;100.00;99737.06;5267328;28;20016;-75
2022/01/04 06:43:01;;;;;;;32.17;10.60;;;;;;;6.62;100.00;99733.69;5276210;28;20115;-74
2022/01/04 06:45:32;;;;;;;37.13;11.35;;;;;;;6.60;100.00;99730.38;5279215;28;20041;-75
2022/01/04 06:48:04;;;;;;;31.55;10.43;;;;;;;6.62;100.00;99739.84;5275760;28;20100;-75
2022/01/04 06:50:34;;;;;;;31.05;11.15;;;;;;;6.61;100.00;99735.53;5279560;28;20046;-75
2022/01/04 06:53:05;;;;;;;36.35;11.68;;;;;;;6.69;100.00;99737.38;5270357;28;20519;-74
2022/01/04 06:55:35;;;;;;;34.33;11.45;;;;;;;6.69;100.00;99737.38;5280425;28;20517;-74
2022/01/04 06:58:07;;;;;;;35.13;10.48;;;;;;;6.68;100.00;99736.56;5278361;28;20035;-75
2022/01/04 07:00:37;;;;;;;45.05;12.45;;;;;;;6.68;100.00;99736.56;5276312;28;20088;-75
2022/01/04 07:03:07;;;;;;;37.78;11.15;;;;;;;6.67;100.00;99724.19;5287269;27;20069;-75
2022/01/04 07:05:38;;;;;;;38.58;10.75;;;;;;;6.68;100.00;99722.41;5279596;28;20028;-75
2022/01/04 07:08:08;;;;;;;33.10;10.25;;;;;;;6.68;100.00;99727.72;5278318;28;20022;-75
2022/01/04 07:10:39;;;;;;;36.70;12.27;;;;;;;6.70;100.00;99729.19;5271890;28;20484;-75
2022/01/04 07:13:10;;;;;;;38.33;11.85;;;;;;;6.69;100.00;99726.72;5285708;28;20081;-75
2022/01/04 07:15:40;;;;;;;39.33;10.85;;;;;;;6.69;100.00;99727.53;5283748;28;20016;-75
2022/01/04 07:18:11;;;;;;;33.53;10.90;;;;;;;6.69;100.00;99714.22;5286003;28;20051;-74
2022/01/04 07:20:41;;;;;;;39.55;11.75;;;;;;;6.66;100.00;99697.72;5272183;28;20024;-75
2022/01/04 07:23:11;;;;;;;33.75;10.52;;;;;;;6.67;100.00;99692.22;5284836;27;20031;-74
2022/01/04 07:25:42;;;;;;;38.85;11.60;;;;;;;6.68;100.00;99691.25;5284399;28;20436;-73
2022/01/04 07:28:12;;;;;;;39.08;12.13;;;;;;;6.65;100.00;99682.75;5284978;28;20046;-73
2022/01/04 07:30:43;;;;;;;39.35;13.70;;;;;;;6.58;100.00;99687.09;5274369;28;20034;-73
2022/01/04 07:33:14;;;;;;;37.08;12.73;;;;;;;6.58;100.00;99695.91;5273991;28;20036;-73
2022/01/04 07:35:45;;;;;;;44.83;12.30;;;;;;;6.58;100.00;99703.91;5276971;28;20047;-73
2022/01/04 07:38:16;;;;;;;36.08;12.07;;;;;;;6.58;100.00;99714.56;5280928;28;20024;-73
2022/01/04 07:40:46;;;;;;;38.13;11.65;;;;;;;6.61;100.00;99708.88;5275170;28;20023;-73
2022/01/04 07:43:17;;;;;;;36.05;12.63;;;;;;;6.63;100.00;99711.41;5281775;28;20489;-73
2022/01/04 07:45:47;;;;;;;45.92;13.02;;;;;;;6.61;100.00;99710.72;5286037;28;20030;-73
2022/01/04 07:48:18;;;;;;;41.30;12.93;;;;;;;6.61;100.00;99711.56;5284909;28;20091;-73
2022/01/04 07:50:49;;;;;;;40.30;12.75;;;;;;;6.61;100.00;99708.06;5273705;28;20028;-73
2022/01/04 07:53:19;;;;;;;40.67;13.75;;;;;;;6.61;100.00;99713.38;5286117;28;20142;-73
2022/01/04 07:55:50;;;;;;;42.13;14.85;;;;;;;6.62;100.00;99715.88;5285298;28;20140;-73
2022/01/04 07:58:22;;;;;;;43.70;16.00;;;;;;;6.65;100.00;99710.22;5285941;28;20022;-73
2022/01/04 08:00:53;;;;;;;47.58;15.07;;;;;;;6.67;100.00;99712.72;5274183;28;20027;-73
2022/01/04 08:03:24;;;;;;;47.22;15.25;;;;;;;6.68;100.00;99709.91;5287085;28;20151;-73
2022/01/04 08:05:55;;;;;;;36.97;13.90;;;;;;;6.73;100.00;99717.38;5271938;28;20027;-73
2022/01/04 08:08:26;;;;;;;37.58;12.02;;;;;;;6.75;100.00;99718.03;5272751;27;20620;-74
2022/01/04 08:10:56;;;;;;;44.63;14.82;;;;;;;6.84;100.00;99709.03;5272228;27;20039;-73
2022/01/04 08:13:29;;;;;;;47.10;15.40;;;;;;;6.86;100.00;99723.00;5296386;27;20038;-73
2022/01/04 08:16:00;;;;;;;40.45;14.32;;;;;;;6.87;100.00;99716.66;5284075;27;20043;-74
2022/01/04 08:18:30;;;;;;;51.33;12.70;;;;;;;6.86;100.00;99716.84;5284049;27;20425;-73
2022/01/04 08:21:04;;;;;;;35.25;11.30;;;;;;;6.84;100.00;99702.88;5285172;27;20034;-74
2022/01/04 08:23:34;;;;;;;33.40;12.00;;;;;;;6.81;100.00;99697.88;5283291;27;20115;-73
2022/01/04 08:26:05;;;;;;;40.47;11.60;;;;;;;6.77;100.00;99702.69;5287660;27;20142;-74
2022/01/04 08:28:35;;;;;;;30.02;10.50;;;;;;;6.73;100.00;99696.06;5289719;27;20097;-74
2022/01/04 08:31:06;;;;;;;28.17;10.25;;;;;;;6.79;100.00;99718.53;5289467;27;20027;-74
2022/01/04 08:33:37;;;;;;;30.67;10.63;;;;;;;6.78;100.00;99736.38;5281262;27;20031;-74
2022/01/04 08:36:10;;;;;;;22.63;9.85;;;;;;;6.80;100.00;99734.34;5289386;27;20023;-74
2022/01/04 08:38:41;;;;;;;30.73;10.35;;;;;;;6.84;100.00;99738.34;5288097;27;20045;-74
2022/01/04 08:41:11;;;;;;;38.45;18.92;;;;;;;6.88;100.00;99742.34;5289278;27;20027;-74
2022/01/04 08:43:42;;;;;;;32.05;11.23;;;;;;;6.99;100.00;99742.00;5293992;27;20445;-74
2022/01/04 08:46:12;;;;;;;31.70;11.13;;;;;;;6.99;100.00;99739.31;5293656;27;20114;-75
2022/01/04 08:48:42;;;;;;;27.20;12.38;;;;;;;7.05;100.00;99731.66;5290834;27;20026;-75
2022/01/04 08:51:13;;;;;;;27.90;10.80;;;;;;;7.06;100.00;99735.97;5287058;27;20080;-74
2022/01/04 08:53:43;;;;;;;29.98;11.75;;;;;;;7.06;100.00;99739.47;5288114;27;20039;-74
2022/01/04 08:56:17;;;;;;;29.10;11.43;;;;;;;7.07;100.00;99743.78;5288659;27;20721;-75
2022/01/04 08:58:48;;;;;;;30.17;11.48;;;;;;;7.10;100.00;99747.97;5293681;27;20025;-74
2022/01/04 09:01:18;;;;;;;31.45;10.10;;;;;;;7.12;100.00;99740.63;5291164;27;20396;-74
2022/01/04 09:03:49;;;;;;;24.20;10.10;;;;;;;7.15;100.00;99753.63;5282381;27;20019;-75
2022/01/04 09:06:21;;;;;;;30.27;11.07;;;;;;;7.20;100.00;99753.94;5281372;27;20055;-74
2022/01/04 09:08:55;;;;;;;26.58;10.00;;;;;;;7.21;100.00;99747.59;5289969;27;20146;-74
2022/01/04 09:11:26;;;;;;;24.95;9.90;;;;;;;7.21;100.00;99759.09;5279768;28;20039;-75
2022/01/04 09:19:35;;;;;;;30.98;11.50;;;;;;;7.27;100.00;99765.59;5288904;27;20023;-75
2022/01/04 09:22:06;;;;;;;30.70;10.77;;;;;;;7.33;100.00;99756.91;5295550;27;20608;-74
2022/01/04 09:24:37;;;;;;;27.95;10.55;;;;;;;7.37;100.00;99755.53;5282594;27;20035;-74
2022/01/04 09:27:07;;;;;;;26.10;10.90;;;;;;;7.37;100.00;99752.88;5287803;27;20457;-74
2022/01/04 09:29:38;;;;;;;32.50;11.80;;;;;;;7.37;100.00;99747.53;5288063;27;20453;-75
2022/01/04 09:32:13;;;;;;;31.88;11.73;;;;;;;7.36;100.00;99750.38;5288750;27;20088;-74
2022/01/04 09:34:44;;;;;;;31.05;13.80;;;;;;;7.37;100.00;99752.03;5286708;27;20015;-74
2022/01/04 09:37:14;;;;;;;32.28;14.20;;;;;;;7.43;100.00;99768.22;5287761;27;20097;-74
2022/01/04 09:39:45;;;;;;;34.63;12.48;;;;;;;7.45;100.00;99763.53;5295521;27;20073;-75
2022/01/04 09:42:16;;;;;;;31.50;12.77;;;;;;;7.46;100.00;99775.88;5289471;27;20015;-74
2022/01/04 09:44:48;;;;;;;34.88;14.43;;;;;;;7.46;100.00;99775.03;5286335;27;20019;-74
2022/01/04 09:47:19;;;;;;;32.83;13.25;;;;;;;7.47;100.00;99774.03;5293961;27;20026;-74
2022/01/04 09:49:49;;;;;;;34.92;13.73;;;;;;;7.42;100.00;99766.53;5284152;27;20019;-74
2022/01/04 09:52:21;;;;;;;29.30;12.60;;;;;;;7.45;100.00;99760.03;5285832;27;20015;-74
2022/01/04 09:54:54;;;;;;;33.30;12.63;;;;;;;7.45;100.00;99749.34;5291941;27;20015;-74
2022/01/04 09:57:25;;;;;;;26.15;12.38;;;;;;;7.46;100.00;99751.84;5287074;27;20042;-74
2022/01/04 09:59:55;;;;;;;31.83;12.27;;;;;;;7.50;100.00;99741.66;5283818;27;20023;-74
2022/01/04 10:02:30;;;;;;;33.72;11.45;;;;;;;7.53;100.00;99747.50;5289931;27;20068;-74
2022/01/04 10:05:16;;;;;;;31.65;12.80;;;;;;;7.55;100.00;99749.16;5288833;27;20043;-74
2022/01/04 10:07:48;;;;;;;34.72;14.40;;;;;;;7.56;100.00;99742.81;5281375;27;20020;-75
2022/01/04 10:10:20;;;;;;;30.05;12.38;;;;;;;7.59;100.00;99747.81;5275982;28;20429;-74
2022/01/04 10:12:55;;;;;;;25.52;11.07;;;;;;;7.58;100.00;99746.13;5283704;27;20019;-74
2022/01/04 10:15:47;;;;;;;29.70;14.02;;;;;;;7.62;100.00;99758.13;5280247;27;20039;-75
2022/01/04 10:18:21;;;;;;;26.70;10.70;;;;;;;7.49;100.00;99743.50;5267356;28;20031;-74
2022/01/04 10:21:12;;;;;;;26.70;11.40;;;;;;;7.45;100.00;99744.03;5276702;28;20019;-75
2022/01/04 10:24:03;;;;;;;28.23;11.30;;;;;;;7.44;100.00;99726.34;5283573;27;20025;-74
2022/01/04 10:26:37;;;;;;;30.17;12.20;;;;;;;7.50;100.00;99731.00;5277508;28;20090;-74
2022/01/04 10:29:26;;;;;;;23.83;11.57;;;;;;;7.52;100.00;99734.31;5281163;27;20099;-74
2022/01/04 10:32:09;;;;;;;29.23;12.25;;;;;;;7.62;100.00;99745.59;5276433;28;20016;-74
2022/01/04 10:34:58;;;;;;;24.83;10.95;;;;;;;7.67;100.00;99732.56;5279054;27;20110;-75
2022/01/04 10:37:47;;;;;;;24.63;12.82;;;;;;;7.71;100.00;99747.22;5286505;28;20031;-74
2022/01/04 10:40:18;;;;;;;24.58;10.90;;;;;;;7.76;100.00;99739.53;5294398;28;20054;-74
2022/01/04 10:42:48;;;;;;;25.40;11.13;;;;;;;7.89;100.00;99740.81;5284191;27;20070;-75
2022/01/04 10:45:31;;;;;;;26.23;11.65;;;;;;;7.86;100.00;99747.31;5279022;28;20031;-74
2022/01/04 10:48:21;;;;;;;25.02;12.75;;;;;;;7.77;100.00;99751.03;5283576;28;20257;-75
2022/01/04 10:50:55;;;;;;;31.27;14.27;;;;;;;7.76;100.00;99747.53;5287254;28;20077;-74
2022/01/04 10:53:30;;;;;;;22.42;12.57;;;;;;;7.81;100.00;99739.00;5293146;28;20023;-74
2022/01/04 10:56:03;;;;;;;21.55;10.55;;;;;;;7.77;100.00;99727.84;5284279;28;20146;-74
2022/01/04 10:58:54;;;;;;;23.92;11.52;;;;;;;7.84;100.00;99728.00;5286823;28;20106;-74
2022/01/04 11:01:28;;;;;;;23.90;10.48;;;;;;;7.91;100.00;99736.13;5278954;28;20023;-74
2022/01/04 11:04:01;;;;;;;22.83;10.40;;;;;;;7.98;100.00;99735.25;5287185;28;20068;-74
2022/01/04 11:06:35;;;;;;;26.45;10.90;;;;;;;7.95;100.00;99740.94;5285261;28;20054;-74
2022/01/04 11:09:08;;;;;;;25.48;9.50;;;;;;;7.92;100.00;99738.59;5291764;28;20407;-74
2022/01/04 11:11:40;;;;;;;22.17;9.27;;;;;;;7.92;100.00;99743.94;5288310;28;20442;-74
2022/01/04 11:14:13;;;;;;;22.95;10.63;;;;;;;7.97;100.00;99744.25;5288016;28;20053;-74
2022/01/04 11:16:43;;;;;;;20.25;10.05;;;;;;;8.01;100.00;99756.25;5290668;28;20064;-74
2022/01/04 11:19:14;;;;;;;36.05;16.42;;;;;;;8.07;100.00;99752.03;5285453;28;20031;-74
2022/01/04 11:21:45;;;;;;;25.83;11.20;;;;;;;8.07;100.00;99748.53;5285754;28;20029;-74
2022/01/04 11:24:16;;;;;;;18.65;9.15;;;;;;;8.02;100.00;99749.88;5278015;28;20032;-75
2022/01/04 11:26:48;;;;;;;30.23;10.60;;;;;;;8.07;100.00;99753.88;5271851;28;20023;-74
2022/01/04 11:29:27;;;;;;;26.30;9.88;;;;;;;7.97;100.00;99759.44;5280483;28;20077;-74
2022/01/04 11:32:01;;;;;;;25.13;11.13;;;;;;;8.01;100.00;99752.75;5280105;28;20055;-74
2022/01/04 11:35:01;;;;;;;23.38;10.50;;;;;;;8.03;100.00;99770.28;5272508;28;20187;-74
2022/01/04 11:37:31;;;;;;;21.80;9.75;;;;;;;8.02;100.00;99767.75;5283868;28;20473;-74
2022/01/04 11:40:22;;;;;;;24.20;11.45;;;;;;;8.01;100.00;99763.44;5280340;27;20252;-74
2022/01/04 11:42:55;;;;;;;25.80;10.98;;;;;;;8.03;100.00;99780.97;5285797;27;20030;-73
2022/01/04 11:45:38;;;;;;;25.20;11.48;;;;;;;8.10;100.00;99769.56;5283035;27;20027;-74
2022/01/04 11:48:31;;;;;;;21.75;10.40;;;;;;;8.11;100.00;99763.22;5291157;27;20046;-74
2022/01/04 11:51:05;;;;;;;19.88;9.70;;;;;;;8.14;100.00;99768.22;5276856;27;20461;-74
2022/01/04 11:53:36;;;;;;;20.73;9.27;;;;;;;8.13;100.00;99758.50;5273474;27;20075;-74
2022/01/04 11:56:09;;;;;;;21.67;9.68;;;;;;;8.16;100.00;99763.50;5284462;27;20046;-74
2022/01/04 11:58:59;;;;;;;18.85;9.10;;;;;;;8.14;100.00;99755.69;5270748;27;20626;-74